Time;durP1;ratioP1;P1;durP2;ratioP2;P2;SDS_P1;SDS_P2;PMS_P1;PMS_P2;Temp;Humidity;BMP_temperature;BMP_pressure;BME280_temperature;BME280_humidity;BME280_pressure;Samples;Min_cycle;Max_cycle;Signal;HPM_P1;HPM_P2
2022/09/18 00:01:15;;;;;;;1.30;1.00;;;12.90;53.20;;;;;;5029904;28;20804;-72
2022/09/18 00:03:41;;;;;;;1.30;1.00;;;12.70;52.70;;;;;;5025556;28;20715;-73
2022/09/18 00:06:10;;;;;;;1.30;1.00;;;13.00;54.60;;;;;;5031745;28;20497;-73
2022/09/18 00:08:37;;;;;;;1.30;1.10;;;12.90;53.30;;;;;;5024166;28;20437;-72
2022/09/18 00:11:07;;;;;;;1.30;1.00;;;13.50;50.40;;;;;;5025472;28;21032;-72
2022/09/18 00:13:34;;;;;;;1.30;1.00;;;13.30;51.60;;;;;;5031099;28;20425;-72
2022/09/18 00:16:00;;;;;;;1.30;1.10;;;13.30;51.60;;;;;;5028871;28;20438;-72
2022/09/18 00:18:26;;;;;;;1.30;1.00;;;13.30;51.60;;;;;;5022796;28;20804;-73
2022/09/18 00:20:51;;;;;;;1.30;1.10;;;13.60;50.40;;;;;;5028151;28;20451;-73
2022/09/18 00:23:17;;;;;;;1.30;1.00;;;13.60;49.30;;;;;;5031337;28;20200;-72
2022/09/18 00:25:43;;;;;;;1.30;1.10;;;13.50;50.20;;;;;;5031075;28;20172;-72
2022/09/18 00:28:08;;;;;;;1.30;1.00;;;13.60;49.90;;;;;;5029017;28;20271;-72
2022/09/18 00:30:34;;;;;;;1.30;1.10;;;13.70;49.40;;;;;;5025892;28;20570;-73
2022/09/18 00:32:59;;;;;;;1.30;1.03;;;13.90;49.70;;;;;;5031064;28;20177;-72
2022/09/18 00:35:25;;;;;;;1.30;1.00;;;13.70;48.80;;;;;;5031311;28;20172;-72
2022/09/18 00:37:50;;;;;;;1.30;1.00;;;13.70;49.40;;;;;;5029692;28;20196;-72
2022/09/18 00:40:17;;;;;;;1.30;1.07;;;13.80;50.60;;;;;;5026394;28;20595;-72
2022/09/18 00:42:43;;;;;;;1.30;1.07;;;12.90;54.50;;;;;;5030712;28;20656;-71
2022/09/18 00:45:09;;;;;;;1.30;1.10;;;13.40;52.80;;;;;;5029129;28;20445;-72
2022/09/18 00:47:47;;;;;;;1.30;1.00;;;13.50;51.80;;;;;;5031331;28;20426;-72
2022/09/18 00:50:31;;;;;;;1.30;1.10;;;13.50;50.60;;;;;;5017372;28;20966;-72
2022/09/18 00:53:04;;;;;;;1.30;1.10;;;13.20;51.50;;;;;;5025364;28;20436;-72
2022/09/18 00:55:36;;;;;;;1.30;1.00;;;13.60;49.70;;;;;;5023496;28;20404;-72
2022/09/18 00:58:03;;;;;;;1.30;1.10;;;13.70;49.30;;;;;;5031394;28;21054;-72
2022/09/18 01:00:30;;;;;;;1.30;1.10;;;13.30;51.60;;;;;;5025617;28;20431;-72
2022/09/18 01:02:56;;;;;;;1.30;1.10;;;13.00;53.20;;;;;;5030264;28;20407;-72
2022/09/18 01:05:30;;;;;;;1.30;1.00;;;13.20;52.30;;;;;;5025373;28;20474;-72
2022/09/18 01:08:34;;;;;;;1.30;1.00;;;14.00;52.10;;;;;;5029879;28;20407;-72
2022/09/18 01:11:26;;;;;;;1.30;1.07;;;13.80;50.40;;;;;;5023651;28;20477;-72
2022/09/18 01:14:02;;;;;;;1.30;1.10;;;13.90;50.40;;;;;;5029661;28;20494;-74
2022/09/18 01:16:38;;;;;;;1.30;1.00;;;14.00;47.60;;;;;;5035028;28;20403;-72
2022/09/18 01:19:29;;;;;;;1.30;1.10;;;14.00;49.10;;;;;;5031681;28;20957;-72
2022/09/18 01:22:13;;;;;;;1.30;1.10;;;13.80;47.80;;;;;;5026605;28;20455;-72
2022/09/18 01:24:50;;;;;;;1.30;1.10;;;14.20;49.10;;;;;;5032675;28;20427;-72
2022/09/18 01:27:25;;;;;;;1.30;1.10;;;14.00;48.10;;;;;;5033165;28;20494;-72
2022/09/18 01:29:59;;;;;;;1.30;1.10;;;13.70;49.50;;;;;;5025316;28;20497;-74
2022/09/18 01:32:40;;;;;;;1.30;1.00;;;13.50;50.10;;;;;;5040122;28;20516;-72
2022/09/18 01:35:06;;;;;;;1.30;1.10;;;13.50;51.70;;;;;;5034409;28;20948;-73
2022/09/18 01:37:35;;;;;;;1.30;1.00;;;13.70;51.10;;;;;;5034584;28;20412;-72
2022/09/18 01:40:35;;;;;;;1.30;1.00;;;14.60;48.40;;;;;;5030363;28;20215;-72
2022/09/18 01:43:07;;;;;;;1.30;1.10;;;13.60;47.40;;;;;;5028040;28;20416;-74
2022/09/18 01:45:37;;;;;;;1.30;1.00;;;13.80;49.30;;;;;;5026768;28;20435;-72
2022/09/18 01:48:06;;;;;;;1.30;1.10;;;14.00;47.80;;;;;;5018024;28;20420;-72
2022/09/18 01:50:37;;;;;;;1.30;1.00;;;14.30;46.20;;;;;;5020495;28;21007;-72
2022/09/18 01:53:20;;;;;;;1.30;1.00;;;14.90;45.40;;;;;;5032854;28;20418;-73
2022/09/18 01:55:53;;;;;;;1.30;1.00;;;14.60;46.90;;;;;;5020902;28;20445;-74
2022/09/18 01:58:23;;;;;;;1.30;1.00;;;14.40;45.20;;;;;;5032098;28;20469;-73
2022/09/18 02:00:53;;;;;;;1.30;1.10;;;14.60;46.70;;;;;;5026676;28;20506;-74
2022/09/18 02:03:29;;;;;;;1.30;1.00;;;14.30;47.60;;;;;;5032881;28;20438;-74
2022/09/18 02:05:57;;;;;;;1.30;1.00;;;14.40;46.30;;;;;;5017488;28;20766;-74
2022/09/18 02:08:26;;;;;;;1.30;1.00;;;14.30;47.80;;;;;;5032228;28;20906;-73
2022/09/18 02:10:56;;;;;;;1.30;1.10;;;14.20;48.40;;;;;;5031176;28;20515;-73
2022/09/18 02:13:29;;;;;;;1.30;1.10;;;14.40;45.80;;;;;;5033079;28;20445;-73
2022/09/18 02:16:00;;;;;;;1.30;1.10;;;14.50;45.70;;;;;;5030119;28;21210;-73
2022/09/18 02:18:36;;;;;;;1.30;1.00;;;14.10;44.60;;;;;;5020782;28;20427;-73
2022/09/18 02:21:05;;;;;;;1.30;1.00;;;13.80;48.40;;;;;;5012396;28;20466;-73
2022/09/18 02:23:32;;;;;;;1.30;1.00;;;14.00;48.60;;;;;;5027401;28;20778;-73
2022/09/18 02:26:03;;;;;;;1.30;1.00;;;14.40;48.10;;;;;;5031742;28;20415;-73
2022/09/18 02:28:30;;;;;;;1.30;1.00;;;14.10;45.80;;;;;;5032872;28;20388;-74
2022/09/18 02:30:57;;;;;;;1.30;1.00;;;14.20;44.90;;;;;;5027698;28;20993;-74
2022/09/18 02:33:25;;;;;;;1.30;1.10;;;14.20;47.90;;;;;;5024667;28;20427;-73
2022/09/18 02:36:14;;;;;;;1.30;1.10;;;13.80;46.80;;;;;;5031923;28;20541;-73
2022/09/18 02:39:03;;;;;;;1.30;1.10;;;14.10;47.50;;;;;;5013995;28;20518;-73
2022/09/18 02:41:51;;;;;;;1.30;1.10;;;13.70;47.00;;;;;;5031569;28;20459;-73
2022/09/18 02:44:20;;;;;;;1.30;1.03;;;13.90;47.90;;;;;;5027811;28;20458;-72
2022/09/18 02:47:15;;;;;;;1.30;1.00;;;13.90;45.30;;;;;;5030017;28;20824;-72
2022/09/18 02:50:00;;;;;;;1.30;1.00;;;14.30;45.60;;;;;;4997400;28;20464;-72
2022/09/18 02:52:47;;;;;;;1.30;1.10;;;13.90;47.10;;;;;;5027973;28;20479;-72
2022/09/18 02:55:20;;;;;;;1.30;1.10;;;14.10;46.00;;;;;;5024843;28;20466;-72
2022/09/18 02:57:50;;;;;;;1.30;1.00;;;13.70;46.70;;;;;;5032701;28;20411;-73
2022/09/18 03:00:17;;;;;;;1.30;1.00;;;13.50;49.50;;;;;;5014521;28;20416;-72
2022/09/18 03:02:44;;;;;;;1.30;1.00;;;13.50;50.00;;;;;;5011621;28;20835;-72
2022/09/18 03:05:11;;;;;;;1.30;1.10;;;13.80;47.70;;;;;;5023675;28;20438;-73
2022/09/18 03:07:37;;;;;;;1.30;1.00;;;14.10;47.90;;;;;;5029841;28;20788;-72
2022/09/18 03:10:03;;;;;;;1.30;1.00;;;13.70;47.30;;;;;;5025520;28;20423;-72
2022/09/18 03:12:28;;;;;;;1.30;1.13;;;13.60;49.10;;;;;;5032084;28;20295;-72
2022/09/18 03:14:54;;;;;;;1.30;1.00;;;13.50;47.80;;;;;;5027680;28;20435;-73
2022/09/18 03:17:19;;;;;;;1.30;1.00;;;13.60;48.90;;;;;;5031647;28;20207;-72
2022/09/18 03:19:45;;;;;;;1.30;1.10;;;13.20;49.10;;;;;;5030686;28;20173;-72
2022/09/18 03:22:11;;;;;;;1.30;1.00;;;12.70;52.30;;;;;;5030978;28;20649;-72
2022/09/18 03:24:37;;;;;;;1.30;1.10;;;12.90;53.50;;;;;;5032571;28;20176;-72
2022/09/18 03:27:03;;;;;;;1.30;1.10;;;13.30;53.00;;;;;;5024150;28;20439;-74
2022/09/18 03:29:29;;;;;;;1.30;1.10;;;13.70;50.90;;;;;;5027732;28;20181;-72
2022/09/18 03:31:55;;;;;;;1.30;1.10;;;14.10;48.00;;;;;;5020159;28;20466;-73
2022/09/18 03:34:20;;;;;;;1.30;1.10;;;14.20;47.40;;;;;;5032131;28;20176;-72
2022/09/18 03:36:46;;;;;;;1.30;1.10;;;14.20;48.00;;;;;;5027799;28;20239;-72
2022/09/18 03:39:12;;;;;;;1.30;1.10;;;14.10;48.70;;;;;;5032037;28;20180;-72
2022/09/18 03:41:38;;;;;;;1.30;1.10;;;13.80;49.00;;;;;;5026840;28;20219;-72
2022/09/18 03:44:03;;;;;;;1.30;1.00;;;13.70;48.70;;;;;;5031625;28;20419;-73
2022/09/18 03:46:29;;;;;;;1.30;1.10;;;13.40;49.70;;;;;;5030122;28;20196;-73
2022/09/18 03:48:55;;;;;;;1.30;1.00;;;13.50;49.20;;;;;;5031907;28;20235;-72
2022/09/18 03:51:21;;;;;;;1.30;1.00;;;13.80;47.50;;;;;;5030191;28;20513;-72
2022/09/18 03:53:47;;;;;;;1.30;1.10;;;14.10;47.00;;;;;;5015542;28;20640;-73
2022/09/18 03:56:13;;;;;;;1.60;1.40;;;13.70;48.40;;;;;;5029434;28;20184;-72
2022/09/18 03:58:39;;;;;;;1.30;1.00;;;13.70;47.60;;;;;;5025452;28;20502;-73
2022/09/18 04:01:05;;;;;;;1.30;1.10;;;13.60;48.60;;;;;;5030782;28;20478;-72
2022/09/18 04:03:32;;;;;;;1.30;1.10;;;13.90;49.50;;;;;;5013961;28;21122;-72
2022/09/18 04:05:58;;;;;;;1.30;1.10;;;14.00;48.80;;;;;;5011750;28;20408;-72
2022/09/18 04:08:24;;;;;;;1.30;1.00;;;14.00;45.50;;;;;;5024311;28;20470;-72
2022/09/18 04:10:49;;;;;;;1.30;1.00;;;13.70;48.60;;;;;;5031201;28;20981;-73
2022/09/18 04:13:15;;;;;;;1.30;1.00;;;13.70;48.80;;;;;;5021667;28;20181;-72
2022/09/18 04:15:43;;;;;;;1.30;1.00;;;13.90;46.20;;;;;;5031545;28;20172;-72
2022/09/18 04:18:10;;;;;;;1.30;1.10;;;14.30;47.60;;;;;;5025911;28;20995;-72
2022/09/18 04:20:36;;;;;;;1.30;1.00;;;14.40;47.00;;;;;;5029978;28;20451;-72
2022/09/18 04:23:01;;;;;;;1.30;1.00;;;14.50;44.70;;;;;;5029320;28;20469;-72
2022/09/18 04:25:27;;;;;;;1.30;1.10;;;13.90;47.00;;;;;;5014257;28;20553;-72
2022/09/18 04:27:53;;;;;;;1.30;1.10;;;14.50;47.40;;;;;;5011297;28;20170;-72
2022/09/18 04:30:18;;;;;;;1.30;1.10;;;14.10;47.30;;;;;;5030599;28;20184;-72
2022/09/18 04:32:44;;;;;;;1.30;1.10;;;14.10;45.90;;;;;;5023114;28;20224;-74
2022/09/18 04:35:11;;;;;;;1.30;1.07;;;14.70;45.00;;;;;;5030358;28;20672;-72
2022/09/18 04:37:36;;;;;;;1.30;1.00;;;13.30;47.90;;;;;;5031485;28;20176;-74
2022/09/18 04:40:04;;;;;;;1.30;1.00;;;12.70;52.00;;;;;;5019896;28;20518;-72
2022/09/18 04:42:30;;;;;;;1.30;1.10;;;12.80;51.20;;;;;;5022258;28;20216;-72
2022/09/18 04:44:55;;;;;;;1.30;1.00;;;13.40;50.90;;;;;;5015434;28;20450;-71
2022/09/18 04:47:21;;;;;;;1.30;1.00;;;13.20;49.10;;;;;;5030236;28;20476;-72
2022/09/18 04:49:46;;;;;;;1.30;1.00;;;13.50;49.40;;;;;;5032433;28;20189;-74
2022/09/18 04:52:12;;;;;;;1.30;1.00;;;14.10;48.60;;;;;;5033174;28;20877;-72
2022/09/18 04:54:37;;;;;;;1.30;1.00;;;13.70;48.00;;;;;;5034774;28;20267;-72
2022/09/18 04:57:04;;;;;;;1.30;1.10;;;14.10;46.90;;;;;;5033650;28;20183;-72
2022/09/18 04:59:29;;;;;;;1.30;1.00;;;14.00;47.00;;;;;;5035283;28;20184;-72
2022/09/18 05:01:55;;;;;;;1.30;1.00;;;13.70;48.30;;;;;;5025429;28;20543;-73
2022/09/18 05:04:20;;;;;;;1.30;1.00;;;13.80;50.60;;;;;;5027355;28;20197;-73
2022/09/18 05:06:46;;;;;;;1.30;1.00;;;12.90;50.90;;;;;;5026593;28;20563;-72
2022/09/18 05:09:11;;;;;;;1.30;1.10;;;12.90;51.30;;;;;;5021132;28;20189;-72
2022/09/18 05:11:37;;;;;;;1.30;1.10;;;13.80;49.60;;;;;;5021602;28;20752;-73
2022/09/18 05:14:03;;;;;;;1.30;1.00;;;13.80;48.60;;;;;;5022836;28;20653;-72
2022/09/18 05:16:28;;;;;;;1.30;1.00;;;13.30;52.30;;;;;;5019060;28;20204;-72
2022/09/18 05:18:54;;;;;;;1.30;1.00;;;13.50;50.10;;;;;;5022330;28;20310;-72
2022/09/18 05:21:19;;;;;;;1.30;1.00;;;13.40;50.80;;;;;;5024895;28;20212;-72
2022/09/18 05:23:45;;;;;;;1.30;1.10;;;12.90;52.60;;;;;;5023708;28;20199;-72
2022/09/18 05:26:12;;;;;;;1.37;1.20;;;13.00;51.90;;;;;;5023468;28;20296;-72
2022/09/18 05:28:37;;;;;;;1.30;1.00;;;13.10;52.20;;;;;;5014339;28;20432;-72
2022/09/18 05:31:03;;;;;;;1.30;1.00;;;13.60;49.50;;;;;;5017724;28;20823;-72
2022/09/18 05:33:29;;;;;;;1.30;1.10;;;13.40;50.40;;;;;;5022052;28;20184;-72
2022/09/18 05:35:56;;;;;;;1.30;1.10;;;13.10;53.50;;;;;;5027708;28;20190;-72
2022/09/18 05:38:23;;;;;;;1.30;1.00;;;13.10;51.90;;;;;;5015154;28;20242;-74
2022/09/18 05:40:49;;;;;;;1.30;1.00;;;13.20;51.10;;;;;;5021858;28;20453;-72
2022/09/18 05:43:15;;;;;;;1.30;1.00;;;13.20;51.50;;;;;;5025420;28;20496;-72
2022/09/18 05:45:41;;;;;;;1.30;1.07;;;13.30;52.40;;;;;;5025144;28;20223;-72
2022/09/18 05:48:07;;;;;;;1.30;1.00;;;12.80;52.90;;;;;;5020078;28;20427;-73
2022/09/18 05:50:35;;;;;;;1.30;1.10;;;13.40;53.40;;;;;;5027059;28;20423;-72
2022/09/18 05:53:02;;;;;;;1.30;1.07;;;13.60;52.20;;;;;;5021767;28;20174;-72
2022/09/18 05:55:29;;;;;;;1.30;1.10;;;12.70;54.70;;;;;;5018637;28;20437;-72
2022/09/18 05:57:56;;;;;;;1.30;1.20;;;12.70;56.10;;;;;;5026937;28;20447;-72
2022/09/18 06:00:23;;;;;;;1.30;1.13;;;13.00;54.30;;;;;;5031590;28;20508;-72
2022/09/18 06:03:03;;;;;;;1.30;1.03;;;13.10;52.10;;;;;;5023788;28;20636;-72
2022/09/18 06:05:33;;;;;;;1.30;1.00;;;13.20;52.40;;;;;;5020281;28;20450;-72
2022/09/18 06:07:59;;;;;;;1.30;1.00;;;13.60;50.60;;;;;;5029869;28;20427;-72
2022/09/18 06:10:26;;;;;;;1.30;1.00;;;13.40;50.80;;;;;;5013767;28;20427;-72
2022/09/18 06:13:00;;;;;;;1.30;1.10;;;13.10;53.50;;;;;;5018282;28;20485;-72
2022/09/18 06:15:25;;;;;;;1.30;1.00;;;13.30;52.10;;;;;;5028313;28;20918;-72
2022/09/18 06:17:51;;;;;;;1.30;1.10;;;13.60;52.20;;;;;;5016033;28;20566;-72
2022/09/18 06:20:17;;;;;;;1.30;1.03;;;13.80;50.50;;;;;;5013994;28;20185;-72
2022/09/18 06:22:43;;;;;;;1.30;1.00;;;14.00;49.30;;;;;;5020537;28;20291;-72
2022/09/18 06:25:09;;;;;;;1.30;1.03;;;14.20;50.20;;;;;;5015230;28;20515;-72
2022/09/18 06:27:34;;;;;;;1.30;1.10;;;13.40;50.30;;;;;;5018365;28;20673;-72
2022/09/18 06:30:00;;;;;;;1.30;1.20;;;13.30;51.70;;;;;;5021635;28;20455;-72
2022/09/18 06:32:26;;;;;;;1.30;1.00;;;13.20;53.80;;;;;;5012987;28;20248;-72
2022/09/18 06:34:51;;;;;;;1.30;1.10;;;13.30;51.60;;;;;;5013066;28;20434;-72
2022/09/18 06:37:17;;;;;;;1.30;1.20;;;13.80;52.20;;;;;;5023591;28;20188;-72
2022/09/18 06:39:44;;;;;;;1.30;1.00;;;14.40;49.40;;;;;;5022768;28;20185;-72
2022/09/18 06:42:09;;;;;;;1.30;1.10;;;13.40;51.70;;;;;;5020057;28;20204;-72
2022/09/18 06:44:35;;;;;;;1.30;1.10;;;13.40;52.90;;;;;;5012876;28;20898;-72
2022/09/18 06:47:01;;;;;;;1.30;1.10;;;15.20;53.40;;;;;;5024932;28;20191;-71
2022/09/18 06:49:27;;;;;;;1.30;1.10;;;13.50;50.70;;;;;;5017057;28;20444;-72
2022/09/18 06:51:52;;;;;;;1.30;1.10;;;13.80;50.10;;;;;;5019111;28;20244;-72
2022/09/18 06:54:18;;;;;;;1.30;1.20;;;14.10;50.00;;;;;;5023070;28;20189;-72
2022/09/18 06:56:45;;;;;;;1.30;1.10;;;13.80;49.30;;;;;;5020500;28;20932;-72
2022/09/18 06:59:11;;;;;;;1.30;1.10;;;13.00;53.40;;;;;;5018548;28;20640;-72
2022/09/18 07:01:36;;;;;;;1.30;1.00;;;13.30;51.60;;;;;;5018191;28;20464;-72
2022/09/18 07:04:02;;;;;;;1.30;1.03;;;13.90;51.10;;;;;;5016373;28;20859;-73
2022/09/18 07:06:28;;;;;;;1.30;1.10;;;14.60;48.60;;;;;;5020802;28;20273;-72
2022/09/18 07:08:54;;;;;;;1.30;1.00;;;14.60;47.80;;;;;;5014823;28;20224;-72
2022/09/18 07:11:20;;;;;;;1.30;1.10;;;14.80;46.00;;;;;;5017132;28;20936;-72
2022/09/18 07:13:46;;;;;;;1.30;1.10;;;13.70;49.50;;;;;;5015169;28;20487;-71
2022/09/18 07:16:12;;;;;;;1.30;1.03;;;14.00;49.20;;;;;;5022140;28;20939;-72
2022/09/18 07:18:38;;;;;;;1.30;1.10;;;14.20;47.50;;;;;;5018212;28;20215;-72
2022/09/18 07:21:04;;;;;;;1.30;1.10;;;14.30;47.20;;;;;;5023577;28;20470;-72
2022/09/18 07:23:32;;;;;;;1.30;1.10;;;14.00;47.60;;;;;;5016375;28;20831;-72
2022/09/18 07:26:01;;;;;;;1.30;1.10;;;13.60;51.10;;;;;;5024197;28;20419;-72
2022/09/18 07:28:28;;;;;;;1.30;1.00;;;14.10;49.80;;;;;;5018793;28;20458;-73
2022/09/18 07:30:53;;;;;;;1.30;1.10;;;14.20;47.80;;;;;;5022438;28;20451;-72
2022/09/18 07:33:20;;;;;;;1.30;1.00;;;13.80;48.80;;;;;;5028444;28;20434;-73
2022/09/18 07:35:46;;;;;;;1.30;1.00;;;13.70;49.30;;;;;;5019410;28;20182;-73
2022/09/18 07:38:12;;;;;;;1.30;1.00;;;14.30;47.90;;;;;;5030787;28;20412;-72
2022/09/18 07:40:40;;;;;;;1.30;1.10;;;14.60;45.60;;;;;;5021373;28;20444;-72
2022/09/18 07:43:08;;;;;;;1.30;1.00;;;14.40;48.90;;;;;;5025941;28;20188;-76
2022/09/18 07:45:34;;;;;;;1.30;1.00;;;13.90;48.90;;;;;;5019683;28;20443;-74
2022/09/18 07:48:04;;;;;;;1.30;1.10;;;14.50;47.40;;;;;;5023929;28;21063;-74
2022/09/18 07:50:30;;;;;;;1.30;1.00;;;14.60;45.80;;;;;;5016147;28;20418;-72
2022/09/18 07:52:58;;;;;;;1.60;1.20;;;14.30;46.50;;;;;;5019936;28;20472;-72
2022/09/18 07:55:25;;;;;;;1.30;1.10;;;13.80;48.80;;;;;;5017765;28;20437;-72
2022/09/18 07:57:59;;;;;;;1.30;1.00;;;13.80;48.20;;;;;;5028787;28;20447;-72
2022/09/18 08:00:27;;;;;;;1.30;1.00;;;14.40;47.60;;;;;;5024618;28;20581;-73
2022/09/18 08:03:06;;;;;;;1.30;1.00;;;14.30;47.70;;;;;;5020706;28;20527;-73
2022/09/18 08:05:32;;;;;;;1.30;1.00;;;14.00;48.00;;;;;;5019733;28;20431;-74
2022/09/18 08:08:15;;;;;;;1.30;1.00;;;14.50;46.50;;;;;;5020944;28;20452;-73
2022/09/18 08:10:44;;;;;;;1.30;1.00;;;14.40;46.20;;;;;;5013484;28;20188;-74
2022/09/18 08:13:10;;;;;;;1.30;1.03;;;14.40;46.30;;;;;;5021418;28;20425;-73
2022/09/18 08:15:37;;;;;;;1.30;1.00;;;13.90;46.90;;;;;;5019600;28;20431;-73
2022/09/18 08:18:05;;;;;;;1.30;1.10;;;14.20;48.10;;;;;;5019027;28;20425;-73
2022/09/18 08:20:30;;;;;;;1.30;1.00;;;13.00;51.40;;;;;;5026278;28;20430;-75
2022/09/18 08:22:57;;;;;;;1.30;1.10;;;13.10;51.50;;;;;;5018845;28;20848;-73
2022/09/18 08:25:23;;;;;;;1.30;1.00;;;13.80;49.80;;;;;;5020642;28;20181;-73
2022/09/18 08:27:48;;;;;;;1.30;1.10;;;13.40;50.30;;;;;;5015565;28;20417;-73
2022/09/18 08:30:15;;;;;;;1.30;1.00;;;13.60;48.80;;;;;;5024740;28;20189;-72
2022/09/18 08:32:41;;;;;;;1.30;1.10;;;14.10;49.50;;;;;;5019716;28;20209;-74
2022/09/18 08:35:07;;;;;;;1.30;1.10;;;13.30;51.60;;;;;;5027990;28;20473;-72
2022/09/18 08:37:33;;;;;;;1.30;1.10;;;13.00;52.80;;;;;;5016795;28;20248;-72
2022/09/18 08:39:58;;;;;;;1.30;1.00;;;12.80;54.40;;;;;;5021788;28;20480;-78
2022/09/18 08:42:51;;;;;;;1.30;1.00;;;13.60;52.10;;;;;;5019698;28;20456;-73
2022/09/18 08:45:16;;;;;;;1.30;1.00;;;14.20;49.10;;;;;;5015465;28;20528;-71
2022/09/18 08:47:53;;;;;;;1.30;1.10;;;14.40;47.10;;;;;;5024722;28;21140;-76
2022/09/18 08:50:26;;;;;;;1.30;1.00;;;14.60;46.30;;;;;;5013773;28;20188;-75
2022/09/18 08:53:02;;;;;;;1.30;1.07;;;14.40;46.90;;;;;;5018536;28;20607;-73
2022/09/18 08:55:38;;;;;;;1.30;1.10;;;13.90;48.00;;;;;;5019543;28;20432;-74
2022/09/18 08:58:21;;;;;;;1.30;1.00;;;14.50;46.10;;;;;;5014201;28;20469;-75
2022/09/18 09:00:55;;;;;;;1.30;1.00;;;14.60;44.10;;;;;;5025300;28;21009;-72
2022/09/18 09:03:23;;;;;;;1.30;1.10;;;14.30;45.00;;;;;;5014492;28;20494;-73
2022/09/18 09:05:56;;;;;;;1.30;1.10;;;13.90;46.60;;;;;;5021813;28;20487;-72
2022/09/18 09:08:44;;;;;;;1.30;1.00;;;14.00;46.60;;;;;;5016310;28;20440;-72
2022/09/18 09:11:33;;;;;;;1.30;1.10;;;14.70;45.80;;;;;;5018084;28;20457;-72
2022/09/18 09:14:34;;;;;;;1.30;1.10;;;14.40;46.10;;;;;;5017331;28;20807;-73
2022/09/18 09:17:12;;;;;;;1.30;1.10;;;13.80;47.10;;;;;;5016686;28;20449;-75
2022/09/18 09:19:53;;;;;;;1.30;1.10;;;14.20;45.50;;;;;;5017723;28;20440;-77
2022/09/18 09:22:24;;;;;;;1.30;1.10;;;14.40;46.30;;;;;;5016738;28;20554;-77
2022/09/18 09:25:12;;;;;;;1.30;1.10;;;14.20;45.90;;;;;;5011795;28;20436;-72
2022/09/18 09:27:42;;;;;;;1.30;1.10;;;13.70;48.70;;;;;;5009333;28;20505;-71
2022/09/18 09:30:18;;;;;;;1.30;1.10;;;13.80;47.80;;;;;;5021062;28;20423;-75
2022/09/18 09:32:59;;;;;;;1.30;1.00;;;13.50;47.00;;;;;;5017772;28;20465;-75
2022/09/18 09:35:30;;;;;;;1.30;1.10;;;14.10;47.70;;;;;;5026040;28;20431;-78
2022/09/18 09:38:02;;;;;;;1.30;1.10;;;14.20;46.90;;;;;;5022461;28;21122;-77
2022/09/18 09:40:43;;;;;;;1.30;1.00;;;14.30;46.80;;;;;;5023951;28;20427;-74
2022/09/18 09:43:21;;;;;;;1.30;1.10;;;13.80;49.40;;;;;;5030907;28;20454;-70
2022/09/18 09:45:52;;;;;;;1.30;1.00;;;13.60;49.40;;;;;;5028438;28;20841;-72
2022/09/18 09:48:29;;;;;;;1.30;1.10;;;14.30;47.40;;;;;;5027949;28;20934;-72
2022/09/18 09:51:22;;;;;;;1.30;1.10;;;14.90;46.40;;;;;;5025682;28;20470;-72
2022/09/18 09:53:48;;;;;;;1.30;1.10;;;14.90;43.90;;;;;;5026268;28;20793;-72
2022/09/18 09:56:17;;;;;;;1.30;1.10;;;15.20;44.20;;;;;;5015296;28;20435;-72
2022/09/18 09:59:20;;;;;;;1.30;1.10;;;15.50;43.30;;;;;;5031498;28;20909;-72
2022/09/18 10:02:00;;;;;;;1.30;1.10;;;15.70;41.00;;;;;;5025525;28;20476;-72
2022/09/18 10:04:32;;;;;;;1.30;1.10;;;15.90;40.60;;;;;;5025525;28;20805;-71
2022/09/18 10:07:09;;;;;;;1.30;1.10;;;15.50;41.40;;;;;;5027333;28;20527;-75
2022/09/18 10:09:57;;;;;;;1.30;1.00;;;15.10;41.50;;;;;;5019560;28;20477;-74
2022/09/18 10:12:31;;;;;;;1.30;1.20;;;14.90;41.00;;;;;;5015658;28;20567;-70
2022/09/18 10:15:12;;;;;;;1.30;1.00;;;14.40;42.50;;;;;;5013914;28;20833;-71
2022/09/18 10:17:40;;;;;;;1.30;1.10;;;14.70;42.40;;;;;;5014059;28;20420;-73
2022/09/18 10:20:09;;;;;;;1.30;1.10;;;14.60;42.40;;;;;;5013873;28;20424;-73
2022/09/18 10:22:37;;;;;;;1.30;1.10;;;15.10;40.20;;;;;;5017724;28;20460;-71
2022/09/18 10:25:13;;;;;;;1.30;1.10;;;15.10;41.60;;;;;;5013649;28;20455;-71
2022/09/18 10:27:39;;;;;;;1.30;1.10;;;14.80;41.00;;;;;;5014129;28;20423;-73
2022/09/18 10:30:14;;;;;;;1.30;1.10;;;15.10;39.50;;;;;;5013883;28;20434;-70
2022/09/18 10:32:40;;;;;;;1.30;1.10;;;14.80;39.20;;;;;;5019400;28;20793;-72
2022/09/18 10:35:27;;;;;;;1.30;1.10;;;15.00;39.30;;;;;;5013702;28;20515;-71
2022/09/18 10:37:53;;;;;;;1.30;1.10;;;15.60;37.60;;;;;;5012104;28;20416;-71
2022/09/18 10:40:38;;;;;;;1.30;1.10;;;15.70;37.60;;;;;;5028998;28;20957;-72
2022/09/18 10:43:06;;;;;;;1.30;1.03;;;14.90;38.50;;;;;;5019746;28;20208;-75
2022/09/18 10:45:40;;;;;;;1.30;1.07;;;15.40;40.50;;;;;;5020948;28;20439;-71
2022/09/18 10:48:21;;;;;;;1.30;1.10;;;14.80;39.60;;;;;;5017362;28;20923;-73
2022/09/18 10:50:55;;;;;;;1.30;1.07;;;15.20;39.70;;;;;;5015856;28;20460;-73
2022/09/18 10:53:27;;;;;;;1.30;1.10;;;14.90;40.00;;;;;;5023131;28;20424;-76
2022/09/18 10:55:53;;;;;;;1.30;1.00;;;15.20;40.00;;;;;;5016603;28;20795;-73
2022/09/18 10:58:29;;;;;;;1.30;1.10;;;15.10;39.20;;;;;;5011152;28;20413;-75
2022/09/18 11:01:07;;;;;;;1.30;1.10;;;14.80;39.70;;;;;;5029218;28;20197;-75
2022/09/18 11:03:46;;;;;;;1.30;1.10;;;14.40;40.50;;;;;;5023009;28;20934;-72
2022/09/18 11:06:24;;;;;;;1.30;1.00;;;14.40;41.10;;;;;;5020015;28;20473;-71
2022/09/18 11:08:55;;;;;;;1.30;1.07;;;15.00;40.30;;;;;;5011636;28;20923;-71
2022/09/18 11:11:28;;;;;;;1.30;1.10;;;15.20;39.60;;;;;;5023469;28;20872;-71
2022/09/18 11:14:00;;;;;;;1.30;1.10;;;16.20;39.60;;;;;;5012421;28;20435;-71
2022/09/18 11:16:36;;;;;;;1.30;1.10;;;15.00;38.60;;;;;;5012328;28;20427;-72
2022/09/18 11:19:09;;;;;;;1.30;1.10;;;15.60;39.10;;;;;;5012515;28;20420;-71
2022/09/18 11:21:45;;;;;;;1.30;1.03;;;15.80;36.60;;;;;;5013214;28;20486;-75
2022/09/18 11:24:36;;;;;;;1.30;1.10;;;15.80;37.80;;;;;;5023812;28;20570;-75
2022/09/18 11:27:21;;;;;;;1.30;1.10;;;15.80;37.60;;;;;;5012777;28;20916;-73
2022/09/18 11:29:47;;;;;;;1.30;1.00;;;15.70;36.70;;;;;;5021307;28;20432;-74
2022/09/18 11:32:20;;;;;;;1.30;1.10;;;15.80;35.60;;;;;;5011293;28;20474;-72
2022/09/18 11:34:49;;;;;;;1.30;1.10;;;15.20;37.20;;;;;;5022915;28;20180;-73
2022/09/18 11:38:06;;;;;;;1.30;1.17;;;14.90;39.20;;;;;;5020634;28;20417;-75
2022/09/18 11:40:59;;;;;;;1.30;1.00;;;14.90;37.40;;;;;;5002611;28;20441;-77
2022/09/18 11:43:32;;;;;;;1.30;1.10;;;15.00;38.00;;;;;;5010164;28;20480;-73
2022/09/18 11:46:08;;;;;;;1.30;1.10;;;15.10;37.70;;;;;;4999427;28;20491;-78
2022/09/18 11:48:39;;;;;;;1.30;1.10;;;15.30;37.00;;;;;;4981742;28;20433;-72
2022/09/18 11:51:13;;;;;;;1.30;1.10;;;15.50;36.20;;;;;;5005619;28;20500;-73
2022/09/18 11:53:42;;;;;;;1.30;1.00;;;15.40;36.80;;;;;;5004813;28;20445;-71
2022/09/18 11:56:14;;;;;;;1.30;1.17;;;16.10;35.50;;;;;;5000098;28;20428;-70
2022/09/18 11:58:55;;;;;;;1.30;1.20;;;16.20;33.80;;;;;;5003916;28;21063;-72
2022/09/18 12:01:23;;;;;;;1.30;1.10;;;15.80;36.30;;;;;;5011590;28;20485;-75
2022/09/18 12:03:58;;;;;;;1.30;1.10;;;15.80;35.10;;;;;;4998033;28;20678;-72
2022/09/18 12:06:40;;;;;;;1.30;1.20;;;16.00;35.10;;;;;;5013775;28;20427;-74
2022/09/18 12:09:42;;;;;;;1.30;1.00;;;16.50;35.70;;;;;;4999804;28;20434;-78
2022/09/18 12:12:20;;;;;;;1.30;1.13;;;16.20;35.00;;;;;;4961807;28;20477;-74
2022/09/18 12:15:09;;;;;;;1.30;1.13;;;15.70;35.00;;;;;;5012408;28;20469;-71
2022/09/18 12:17:39;;;;;;;1.30;1.10;;;15.80;35.40;;;;;;5018752;28;20435;-74
2022/09/18 12:20:14;;;;;;;1.30;1.10;;;16.20;34.00;;;;;;5018232;28;20446;-74
2022/09/18 12:22:57;;;;;;;1.30;1.00;;;16.60;33.40;;;;;;5014706;28;20983;-71
2022/09/18 12:25:41;;;;;;;1.30;1.10;;;16.50;33.70;;;;;;5024691;28;20422;-71
2022/09/18 12:28:10;;;;;;;1.30;1.10;;;15.80;34.00;;;;;;5022692;28;20439;-72
2022/09/18 12:31:20;;;;;;;1.30;1.10;;;15.80;36.40;;;;;;5012523;28;20415;-73
2022/09/18 12:33:54;;;;;;;1.30;1.10;;;16.00;33.30;;;;;;5008507;28;20451;-73
2022/09/18 12:36:37;;;;;;;1.30;1.10;;;15.70;35.50;;;;;;5018249;28;20469;-72
2022/09/18 12:39:50;;;;;;;1.30;1.10;;;15.80;34.30;;;;;;5011445;28;20807;-75
2022/09/18 12:42:28;;;;;;;1.30;1.10;;;15.60;34.30;;;;;;5015354;28;20999;-72
2022/09/18 12:45:05;;;;;;;1.30;1.20;;;15.90;34.60;;;;;;5021823;28;20439;-72
2022/09/18 12:47:53;;;;;;;1.30;1.10;;;16.40;32.60;;;;;;5021200;28;20441;-72
2022/09/18 12:50:39;;;;;;;1.30;1.17;;;15.80;34.10;;;;;;5025251;28;20437;-74
2022/09/18 12:53:31;;;;;;;1.30;1.13;;;15.70;33.40;;;;;;5022520;28;20463;-73
2022/09/18 12:56:23;;;;;;;1.30;1.20;;;15.20;34.50;;;;;;5022140;28;20423;-72
2022/09/18 12:59:22;;;;;;;1.30;1.03;;;15.60;36.10;;;;;;5020877;28;20435;-72
2022/09/18 13:01:52;;;;;;;1.30;1.00;;;15.80;35.50;;;;;;5016416;28;20454;-72
2022/09/18 13:04:23;;;;;;;1.30;1.10;;;16.50;33.20;;;;;;5022766;28;20850;-74
2022/09/18 13:06:57;;;;;;;1.30;1.10;;;16.00;33.20;;;;;;5031107;28;20524;-72
2022/09/18 13:09:33;;;;;;;1.30;1.10;;;15.50;35.20;;;;;;5027964;28;20449;-74
2022/09/18 13:12:09;;;;;;;1.30;1.27;;;15.50;35.00;;;;;;5023846;28;20458;-73